Time;durP1;ratioP1;P1;durP2;ratioP2;P2;SDS_P1;SDS_P2;PMS_P1;PMS_P2;Temp;Humidity;BMP_temperature;BMP_pressure;BME280_temperature;BME280_humidity;BME280_pressure;Samples;Min_cycle;Max_cycle;Signal;HPM_P1;HPM_P2
2023/11/29 00:02:13;;;;;;;5.90;3.70;;;;;;;22.83;33.43;98854.21;103305;1291;60538;-82
2023/11/29 00:04:39;;;;;;;5.60;3.60;;;;;;;22.83;33.31;98857.27;103148;1291;60526;-81
2023/11/29 00:07:04;;;;;;;6.30;3.80;;;;;;;22.84;33.18;98866.10;103244;1291;60474;-82
2023/11/29 00:09:30;;;;;;;5.70;3.90;;;;;;;22.85;33.27;98865.52;103253;1295;60516;-82
2023/11/29 00:11:55;;;;;;;6.10;3.90;;;;;;;22.84;33.29;98868.06;103097;1296;60717;-82
2023/11/29 00:14:21;;;;;;;5.50;3.80;;;;;;;22.85;33.41;98871.39;103364;1291;60622;-82
2023/11/29 00:16:47;;;;;;;5.90;3.70;;;;;;;22.85;33.31;98873.16;103253;1294;60572;-82
2023/11/29 00:19:12;;;;;;;5.70;4.00;;;;;;;22.86;33.29;98879.73;103257;1292;60568;-82
2023/11/29 00:21:41;;;;;;;5.80;3.50;;;;;;;22.86;33.23;98882.21;103256;1291;60752;-82
2023/11/29 00:24:07;;;;;;;6.10;3.80;;;;;;;22.87;33.27;98893.61;103270;1291;73472;-82
2023/11/29 00:26:33;;;;;;;5.60;3.50;;;;;;;22.86;33.33;98896.92;103244;1291;60595;-82
2023/11/29 00:28:58;;;;;;;5.60;3.60;;;;;;;22.87;33.31;98901.11;103227;1291;60641;-82
2023/11/29 00:31:24;;;;;;;5.10;3.50;;;;;;;22.88;33.33;98905.14;103222;1295;60602;-82
2023/11/29 00:33:50;;;;;;;5.40;3.60;;;;;;;22.89;33.29;98905.24;103245;1295;60554;-82
2023/11/29 00:36:16;;;;;;;5.70;3.70;;;;;;;22.88;33.31;98903.13;103321;1291;60605;-82
2023/11/29 00:38:42;;;;;;;6.00;3.60;;;;;;;22.88;33.35;98906.70;103314;1291;60494;-82
2023/11/29 00:41:08;;;;;;;5.00;3.30;;;;;;;22.90;33.37;98909.45;103271;1291;61394;-82
2023/11/29 00:43:35;;;;;;;5.70;3.70;;;;;;;22.90;33.29;98905.08;103299;1296;60566;-82
2023/11/29 00:46:04;;;;;;;5.80;4.00;;;;;;;22.89;33.40;98901.19;103278;1291;73625;-82
2023/11/29 00:48:30;;;;;;;6.00;3.90;;;;;;;22.91;33.37;98910.44;103270;1294;60593;-82
2023/11/29 00:50:57;;;;;;;5.00;3.20;;;;;;;22.91;33.36;98912.89;103234;1295;60598;-82
2023/11/29 00:53:23;;;;;;;6.60;3.60;;;;;;;22.91;33.31;98913.36;103339;1291;60600;-82
2023/11/29 00:55:49;;;;;;;6.30;3.30;;;;;;;22.92;33.32;98916.56;103199;1291;60659;-82
2023/11/29 00:58:14;;;;;;;5.20;3.50;;;;;;;22.92;33.32;98916.23;103300;1295;61089;-82
2023/11/29 01:00:40;;;;;;;6.00;3.90;;;;;;;22.92;33.31;98915.44;103354;1291;60477;-82
2023/11/29 01:03:06;;;;;;;5.90;3.60;;;;;;;22.92;33.35;98914.70;103356;1293;60583;-82
2023/11/29 01:05:31;;;;;;;6.30;4.00;;;;;;;22.93;33.31;98918.77;103285;1291;72660;-82
2023/11/29 01:07:57;;;;;;;5.30;3.50;;;;;;;22.92;33.27;98930.48;103222;1291;60602;-82
2023/11/29 01:10:23;;;;;;;6.90;3.80;;;;;;;22.93;33.39;98942.10;103185;1291;60604;-80
2023/11/29 01:12:49;;;;;;;5.50;3.50;;;;;;;22.93;33.32;98943.98;103177;1291;60610;-83
2023/11/29 01:15:15;;;;;;;6.40;4.00;;;;;;;22.93;33.36;98948.16;103259;1296;60662;-82
2023/11/29 01:17:40;;;;;;;5.20;3.70;;;;;;;22.93;33.35;98951.33;103596;1296;60657;-82
2023/11/29 01:20:07;;;;;;;6.40;3.50;;;;;;;22.94;33.31;98949.51;103313;1296;60589;-81
2023/11/29 01:22:33;;;;;;;5.50;3.90;;;;;;;22.94;33.32;98949.64;103244;1294;60593;-83
2023/11/29 01:24:59;;;;;;;5.30;3.40;;;;;;;22.94;33.21;98945.17;103249;1291;60405;-83
2023/11/29 01:27:29;;;;;;;5.80;3.60;;;;;;;22.95;33.17;98945.48;103234;1291;60498;-83
2023/11/29 01:29:55;;;;;;;4.60;3.20;;;;;;;22.94;33.23;98943.36;103193;1291;73614;-83
2023/11/29 01:32:20;;;;;;;5.50;3.60;;;;;;;22.94;33.29;98937.23;103558;1295;60625;-82
2023/11/29 01:34:46;;;;;;;5.90;3.50;;;;;;;22.95;33.29;98952.84;103250;1291;60595;-83
2023/11/29 01:37:13;;;;;;;5.20;3.40;;;;;;;22.96;33.32;98964.75;103270;1291;60672;-83
2023/11/29 01:39:44;;;;;;;4.80;3.30;;;;;;;22.96;33.17;98975.14;103242;1291;60467;-84
2023/11/29 01:42:11;;;;;;;5.80;3.30;;;;;;;22.97;33.26;98995.36;103201;1291;60535;-81
2023/11/29 01:44:37;;;;;;;5.00;3.30;;;;;;;22.97;33.29;98996.27;103336;1295;60526;-82
2023/11/29 01:47:18;;;;;;;4.90;3.40;;;;;;;22.97;33.28;98998.86;103223;1291;61266;-82
2023/11/29 01:49:44;;;;;;;4.70;3.40;;;;;;;22.97;33.19;99001.56;103222;1291;72549;-82
2023/11/29 01:52:10;;;;;;;4.70;3.30;;;;;;;22.97;33.13;99000.48;103235;1291;60593;-82
2023/11/29 01:54:36;;;;;;;7.80;3.60;;;;;;;22.98;33.19;99000.45;103395;1291;60488;-82
2023/11/29 01:57:02;;;;;;;6.00;3.50;;;;;;;22.97;33.20;99001.88;103240;1291;60660;-81
2023/11/29 01:59:29;;;;;;;6.30;3.90;;;;;;;22.98;33.24;99008.45;103226;1291;60562;-82
2023/11/29 02:01:54;;;;;;;7.10;3.70;;;;;;;22.98;33.28;99009.36;103361;1291;60593;-82
2023/11/29 02:04:20;;;;;;;5.30;3.40;;;;;;;22.99;33.23;99022.38;103202;1291;60610;-82
2023/11/29 02:06:45;;;;;;;4.80;3.20;;;;;;;22.99;33.11;99032.11;103133;1299;60593;-82
2023/11/29 02:09:11;;;;;;;5.20;3.50;;;;;;;22.99;33.22;99039.91;103229;1296;72339;-82
2023/11/29 02:11:39;;;;;;;4.80;3.40;;;;;;;23.00;33.17;99048.45;103145;1297;60675;-82
2023/11/29 02:14:06;;;;;;;6.10;3.30;;;;;;;23.00;33.20;99051.67;103284;1296;60554;-82
2023/11/29 02:16:32;;;;;;;6.00;3.30;;;;;;;23.00;33.07;99055.05;103296;1296;60592;-82
2023/11/29 02:18:57;;;;;;;5.40;3.50;;;;;;;23.00;33.14;99051.48;103157;1295;60571;-82
2023/11/29 02:21:26;;;;;;;5.50;3.50;;;;;;;23.00;33.22;99055.39;103226;1291;60576;-82
2023/11/29 02:24:00;;;;;;;5.20;3.50;;;;;;;23.01;33.19;99054.27;103279;1291;60481;-82
2023/11/29 02:26:28;;;;;;;5.80;3.70;;;;;;;23.01;33.14;99064.66;103236;1292;60562;-83
2023/11/29 02:28:53;;;;;;;6.50;3.40;;;;;;;23.01;33.10;99066.42;103327;1291;73250;-83
2023/11/29 02:31:19;;;;;;;5.80;3.30;;;;;;;23.02;33.16;99061.20;103155;1291;60629;-82
2023/11/29 02:33:45;;;;;;;4.90;3.20;;;;;;;23.02;33.11;99056.48;103037;1291;60522;-83
2023/11/29 02:36:11;;;;;;;4.90;3.40;;;;;;;23.02;33.16;99047.87;103235;1292;60664;-82
2023/11/29 02:38:36;;;;;;;5.40;3.30;;;;;;;23.02;33.14;99052.32;103235;1295;60633;-82
2023/11/29 02:41:02;;;;;;;5.90;3.60;;;;;;;23.02;33.23;99058.07;103272;1291;60528;-83
2023/11/29 02:43:31;;;;;;;;;;;;;;;23.03;33.13;99053.73;103160;1291;73723;-83
2023/11/29 02:45:57;;;;;;;5.80;3.60;;;;;;;23.01;33.13;99057.19;103247;1291;60631;-82
2023/11/29 02:48:23;;;;;;;4.60;3.30;;;;;;;23.01;33.17;99055.11;103156;1291;60602;-83
2023/11/29 02:50:49;;;;;;;5.20;3.70;;;;;;;23.02;33.22;99056.86;103237;1297;60635;-83
2023/11/29 02:53:14;;;;;;;4.90;3.50;;;;;;;23.02;33.07;99055.02;103255;1291;60592;-83
2023/11/29 02:55:40;;;;;;;6.00;3.30;;;;;;;23.03;33.08;99061.40;103384;1291;61736;-83
2023/11/29 02:58:06;;;;;;;6.10;3.40;;;;;;;23.03;33.11;99065.34;103269;1291;60533;-82
2023/11/29 03:00:31;;;;;;;4.90;3.50;;;;;;;23.03;33.08;99070.48;103202;1296;60649;-83
2023/11/29 03:02:58;;;;;;;5.00;2.80;;;;;;;23.03;33.04;99076.45;103235;1291;60500;-83
2023/11/29 03:05:24;;;;;;;5.20;3.40;;;;;;;23.04;33.00;99079.78;103254;1291;60522;-83
2023/11/29 03:07:50;;;;;;;4.70;3.20;;;;;;;23.04;33.14;99077.61;103203;1295;60599;-83
2023/11/29 03:10:16;;;;;;;5.30;3.50;;;;;;;23.04;33.12;99078.50;103285;1296;60595;-83
2023/11/29 03:12:41;;;;;;;4.90;3.50;;;;;;;23.04;33.06;99083.17;103285;1291;60652;-82
2023/11/29 03:15:08;;;;;;;5.40;3.40;;;;;;;23.04;33.07;99090.30;103323;1291;60532;-83
2023/11/29 03:17:34;;;;;;;4.70;3.10;;;;;;;23.05;33.11;99092.94;103145;1291;73524;-83
2023/11/29 03:20:00;;;;;;;5.00;3.30;;;;;;;23.06;33.01;99096.10;103183;1296;60978;-83
2023/11/29 03:22:26;;;;;;;5.20;3.50;;;;;;;23.05;33.00;99098.27;103166;1296;60576;-82
2023/11/29 03:24:52;;;;;;;4.60;3.00;;;;;;;23.06;33.08;99096.73;103242;1296;60749;-82
2023/11/29 03:27:18;;;;;;;5.10;3.20;;;;;;;23.07;33.08;99100.60;103234;1293;60590;-83
2023/11/29 03:29:44;;;;;;;5.50;3.40;;;;;;;23.07;32.98;99102.69;103234;1291;60528;-84
2023/11/29 03:32:10;;;;;;;4.90;3.20;;;;;;;23.08;33.03;99097.64;103264;1291;61009;-81
2023/11/29 03:34:36;;;;;;;5.30;3.00;;;;;;;23.08;33.09;99101.76;103214;1291;60806;-83
2023/11/29 03:37:01;;;;;;;4.20;2.80;;;;;;;23.08;33.05;99111.20;103279;1295;72693;-83
2023/11/29 03:39:27;;;;;;;5.20;3.00;;;;;;;23.09;33.00;99114.95;103292;1297;60615;-83
2023/11/29 03:41:53;;;;;;;5.40;3.10;;;;;;;23.09;33.04;99121.21;103215;1291;60989;-83
2023/11/29 03:44:18;;;;;;;4.50;3.10;;;;;;;23.09;33.03;99122.61;103226;1297;60568;-81
2023/11/29 03:46:44;;;;;;;4.70;3.10;;;;;;;23.09;32.93;99126.75;103120;1292;60594;-82
2023/11/29 03:49:10;;;;;;;4.70;3.00;;;;;;;23.10;32.93;99127.80;103296;1295;60665;-82
2023/11/29 03:51:35;;;;;;;4.60;3.10;;;;;;;23.09;32.94;99130.83;103281;1291;74110;-82
2023/11/29 03:54:01;;;;;;;5.40;3.00;;;;;;;23.10;33.09;99140.11;103245;1296;60606;-82
2023/11/29 03:56:27;;;;;;;4.20;2.90;;;;;;;23.10;32.97;99138.13;103174;1291;60600;-82
2023/11/29 03:58:52;;;;;;;5.90;3.00;;;;;;;23.10;32.90;99140.27;103192;1296;60551;-82
2023/11/29 04:01:18;;;;;;;4.70;3.10;;;;;;;23.11;33.04;99149.23;103211;1296;60575;-82
2023/11/29 04:03:43;;;;;;;5.10;3.20;;;;;;;23.11;32.99;99157.78;103294;1295;73431;-81
2023/11/29 04:06:09;;;;;;;5.10;3.10;;;;;;;23.12;33.07;99156.84;103514;1295;60503;-82
2023/11/29 04:08:35;;;;;;;4.60;2.90;;;;;;;23.12;32.85;99158.98;103108;1297;60573;-82
2023/11/29 04:11:01;;;;;;;4.30;2.90;;;;;;;23.12;32.92;99166.30;103292;1296;61787;-81
2023/11/29 04:13:26;;;;;;;5.10;3.20;;;;;;;23.13;32.92;99169.51;103078;1297;60590;-82
2023/11/29 04:15:52;;;;;;;5.40;3.30;;;;;;;23.12;32.88;99172.91;103319;1295;60606;-81
2023/11/29 04:18:18;;;;;;;4.90;2.90;;;;;;;23.12;32.99;99183.16;103277;1291;61043;-81
2023/11/29 04:20:44;;;;;;;4.40;2.90;;;;;;;23.13;32.91;99191.38;103230;1297;60693;-81
2023/11/29 04:23:10;;;;;;;4.80;2.90;;;;;;;23.13;32.89;99199.44;103159;1296;61647;-81
2023/11/29 04:25:36;;;;;;;4.30;2.70;;;;;;;23.13;32.82;99210.20;103163;1297;60565;-82
2023/11/29 04:28:03;;;;;;;4.90;2.90;;;;;;;23.13;32.89;99215.96;103063;1292;60584;-81
2023/11/29 04:30:28;;;;;;;4.70;3.10;;;;;;;23.13;32.96;99223.45;103228;1291;60600;-81
2023/11/29 04:32:54;;;;;;;4.90;2.90;;;;;;;23.13;32.79;99224.56;103134;1291;60558;-82
2023/11/29 04:35:20;;;;;;;4.10;2.60;;;;;;;23.13;32.79;99229.39;103314;1292;60693;-81
2023/11/29 04:37:45;;;;;;;4.00;2.70;;;;;;;23.13;32.84;99234.26;103255;1297;60621;-82
2023/11/29 04:40:11;;;;;;;4.00;2.70;;;;;;;23.13;32.83;99236.56;103323;1295;60619;-81
2023/11/29 04:42:37;;;;;;;4.80;2.90;;;;;;;23.13;32.85;99244.64;103242;1297;60596;-81
2023/11/29 04:45:03;;;;;;;4.10;2.60;;;;;;;23.13;32.83;99255.42;103164;1297;60578;-81
2023/11/29 04:47:29;;;;;;;5.30;3.40;;;;;;;23.14;32.79;99260.01;103350;1296;60582;-82
2023/11/29 04:49:54;;;;;;;4.40;3.00;;;;;;;23.14;32.79;99267.71;103190;1290;60604;-82
2023/11/29 04:52:20;;;;;;;4.40;2.90;;;;;;;23.14;32.77;99280.27;103258;1295;60675;-81
2023/11/29 04:54:45;;;;;;;4.10;2.80;;;;;;;23.13;32.78;99280.52;103268;1295;60591;-81
2023/11/29 04:57:11;;;;;;;5.30;2.90;;;;;;;23.13;32.75;99285.59;103236;1297;60636;-81
2023/11/29 04:59:38;;;;;;;4.70;2.90;;;;;;;23.13;32.66;99288.30;103395;1296;60532;-82
2023/11/29 05:02:05;;;;;;;4.80;3.00;;;;;;;23.12;32.61;99287.25;103244;1295;60592;-82
2023/11/29 05:04:30;;;;;;;3.80;2.70;;;;;;;23.12;32.63;99284.39;103217;1296;60528;-81
2023/11/29 05:06:56;;;;;;;4.50;2.90;;;;;;;23.12;32.58;99286.95;103304;1295;60598;-82
2023/11/29 05:09:21;;;;;;;5.40;3.10;;;;;;;23.11;32.47;99288.46;103266;1293;60586;-81
2023/11/29 05:11:47;;;;;;;5.70;3.20;;;;;;;23.11;32.52;99291.14;103354;1295;60659;-81
2023/11/29 05:14:13;;;;;;;5.70;3.30;;;;;;;23.10;32.34;99293.03;103401;1292;60474;-82
2023/11/29 05:16:38;;;;;;;5.00;2.70;;;;;;;23.10;32.38;99298.95;103512;1296;60546;-81
2023/11/29 05:19:05;;;;;;;4.90;3.20;;;;;;;23.09;32.28;99307.79;103098;1298;61122;-80
2023/11/29 05:21:33;;;;;;;4.40;2.70;;;;;;;23.09;32.29;99314.66;103168;1296;73606;-81
2023/11/29 05:23:59;;;;;;;4.70;2.90;;;;;;;23.09;32.18;99318.98;103334;1294;60602;-81
2023/11/29 05:26:25;;;;;;;4.40;3.00;;;;;;;23.07;32.16;99315.89;103500;1291;60505;-83
2023/11/29 05:28:50;;;;;;;5.20;3.00;;;;;;;23.06;32.13;99318.91;103581;1298;60628;-81
2023/11/29 05:31:17;;;;;;;4.60;3.10;;;;;;;23.05;31.98;99322.10;103826;1296;59840;-81
2023/11/29 05:33:42;;;;;;;5.20;3.00;;;;;;;23.02;31.93;99320.39;103942;1293;60682;-81
2023/11/29 05:36:08;;;;;;;4.90;2.90;;;;;;;22.98;31.83;99324.17;104207;1291;61088;-81
2023/11/29 05:38:34;;;;;;;4.40;2.90;;;;;;;22.94;31.64;99336.28;104781;1291;59920;-82
2023/11/29 05:41:00;;;;;;;4.10;2.90;;;;;;;22.89;31.49;99353.07;104488;1291;60575;-81
2023/11/29 05:43:25;;;;;;;5.30;3.00;;;;;;;22.84;31.54;99359.02;104426;1296;60992;-81
2023/11/29 05:45:51;;;;;;;6.10;3.60;;;;;;;22.79;31.30;99369.00;104747;1291;60642;-81
2023/11/29 05:48:17;;;;;;;4.20;2.80;;;;;;;22.74;31.14;99376.52;104396;1297;60596;-81
2023/11/29 05:50:42;;;;;;;7.60;3.10;;;;;;;22.69;30.93;99385.94;104439;1297;60700;-81
2023/11/29 05:53:08;;;;;;;4.70;3.00;;;;;;;22.65;30.56;99388.38;104633;1291;60692;-81
2023/11/29 05:55:34;;;;;;;6.20;2.90;;;;;;;22.61;30.57;99398.27;104825;1291;60573;-81
2023/11/29 05:58:01;;;;;;;5.90;3.30;;;;;;;22.57;30.36;99408.88;105442;1289;58544;-81
2023/11/29 06:00:29;;;;;;;6.80;2.90;;;;;;;22.54;30.54;99417.56;105327;1290;60461;-82
2023/11/29 06:02:55;;;;;;;8.50;3.00;;;;;;;22.53;30.74;99421.45;105439;1291;59487;-80
2023/11/29 06:05:20;;;;;;;12.30;3.20;;;;;;;22.52;30.68;99427.11;105203;1297;59324;-81
2023/11/29 06:07:47;;;;;;;7.20;3.50;;;;;;;22.50;30.78;99428.30;105194;1291;60522;-81
2023/11/29 06:10:14;;;;;;;7.00;3.00;;;;;;;22.50;30.73;99427.48;104823;1290;60515;-81
2023/11/29 06:12:40;;;;;;;9.60;3.00;;;;;;;22.49;30.65;99429.88;105168;1292;60345;-82
2023/11/29 06:15:08;;;;;;;10.60;3.30;;;;;;;22.50;30.65;99434.43;105233;1289;60524;-82
2023/11/29 06:17:35;;;;;;;8.20;3.00;;;;;;;22.51;30.53;99436.15;105238;1291;60987;-81
2023/11/29 06:20:04;;;;;;;8.80;3.00;;;;;;;22.52;30.54;99430.84;105033;1291;59918;-81
2023/11/29 06:22:32;;;;;;;12.80;3.30;;;;;;;22.54;30.70;99426.94;105131;1294;72501;-82
2023/11/29 06:25:01;;;;;;;11.50;3.40;;;;;;;22.54;30.76;99435.50;104756;1291;73445;-81
2023/11/29 06:27:30;;;;;;;8.10;3.30;;;;;;;22.54;31.13;99435.48;105006;1291;60394;-81
2023/11/29 06:29:57;;;;;;;10.20;3.30;;;;;;;22.55;31.61;99438.45;104989;1290;60295;-81
2023/11/29 06:32:22;;;;;;;8.60;3.20;;;;;;;22.56;32.05;99450.05;104636;1291;60495;-81
2023/11/29 06:34:55;;;;;;;6.90;3.30;;;;;;;22.56;32.53;99457.41;104627;1291;60623;-81
2023/11/29 06:37:21;;;;;;;9.70;3.50;;;;;;;22.54;32.63;99465.40;104967;1290;60622;-81
2023/11/29 06:39:47;;;;;;;12.00;3.30;;;;;;;22.53;32.88;99474.30;104663;1291;60509;-81
2023/11/29 06:42:13;;;;;;;6.10;3.20;;;;;;;22.51;32.93;99480.77;104842;1291;58784;-81
2023/11/29 06:44:39;;;;;;;6.50;3.30;;;;;;;22.51;32.80;99485.49;104783;1291;60538;-81
2023/11/29 06:47:05;;;;;;;6.50;3.20;;;;;;;22.50;32.73;99481.09;104738;1289;60679;-80
2023/11/29 06:49:30;;;;;;;7.40;3.40;;;;;;;22.48;32.57;99475.68;104874;1291;60494;-80
2023/11/29 06:51:56;;;;;;;9.40;3.10;;;;;;;22.47;32.38;99478.19;104685;1289;60445;-80
2023/11/29 06:54:23;;;;;;;7.60;3.50;;;;;;;22.44;32.20;99477.36;104786;1295;72636;-81
2023/11/29 06:56:50;;;;;;;10.70;3.80;;;;;;;22.38;31.96;99481.91;105184;1291;73572;-80
2023/11/29 06:59:16;;;;;;;10.90;3.40;;;;;;;22.32;31.79;99492.48;104806;1290;60415;-81
2023/11/29 07:01:42;;;;;;;6.80;3.20;;;;;;;22.25;31.73;99492.95;104983;1289;60745;-81
2023/11/29 07:04:09;;;;;;;12.70;3.50;;;;;;;22.19;31.58;99502.32;105573;1290;59284;-79
2023/11/29 07:06:37;;;;;;;6.70;3.20;;;;;;;22.15;31.72;99501.80;104970;1291;60579;-80
2023/11/29 07:09:06;;;;;;;8.50;3.60;;;;;;;22.12;31.65;99510.67;104969;1289;58235;-80
2023/11/29 07:11:36;;;;;;;13.20;3.50;;;;;;;22.11;31.50;99511.31;103899;1290;60421;-80
2023/11/29 07:14:02;;;;;;;7.60;3.40;;;;;;;22.12;31.38;99510.55;103791;1290;72384;-80
2023/11/29 07:16:28;;;;;;;5.80;3.10;;;;;;;22.15;31.19;99514.88;103968;1291;59394;-80
2023/11/29 07:18:53;;;;;;;11.00;3.20;;;;;;;22.19;31.10;99513.79;103941;1291;61195;-80
2023/11/29 07:21:19;;;;;;;12.10;3.00;;;;;;;22.24;31.17;99524.00;104096;1291;60534;-79
2023/11/29 07:23:45;;;;;;;5.70;2.90;;;;;;;22.30;31.13;99524.94;103872;1289;60540;-79
2023/11/29 07:26:11;;;;;;;7.80;2.80;;;;;;;22.36;31.05;99534.08;103763;1290;61340;-79
2023/11/29 07:28:37;;;;;;;9.40;3.20;;;;;;;22.40;30.97;99524.30;103796;1291;60537;-79
2023/11/29 07:31:11;;;;;;;7.30;2.60;;;;;;;22.45;31.03;99521.00;103517;1292;61435;-79
2023/11/29 07:33:37;;;;;;;7.50;2.70;;;;;;;22.49;31.10;99519.73;103980;1292;62082;-80
2023/11/29 07:36:10;;;;;;;6.50;2.60;;;;;;;22.53;31.13;99527.26;103502;1290;257330;-79
2023/11/29 07:38:35;;;;;;;6.70;2.80;;;;;;;22.57;31.18;99527.17;103869;1293;73419;-80
2023/11/29 07:41:01;;;;;;;8.00;3.30;;;;;;;22.59;31.17;99527.27;103846;1291;60675;-80
2023/11/29 07:43:26;;;;;;;5.80;2.80;;;;;;;22.63;31.22;99531.89;104088;1293;60514;-79
2023/11/29 07:45:52;;;;;;;6.80;2.80;;;;;;;22.65;31.24;99540.96;104445;1291;60610;-80
2023/11/29 07:48:18;;;;;;;5.80;2.60;;;;;;;22.68;31.29;99550.85;104016;1290;60571;-79
2023/11/29 07:50:44;;;;;;;5.90;2.90;;;;;;;22.71;31.35;99551.98;103866;1291;73542;-79
2023/11/29 07:53:12;;;;;;;14.70;3.00;;;;;;;22.74;31.37;99551.89;105741;1291;60235;-80
2023/11/29 07:55:38;;;;;;;14.70;3.70;;;;;;;22.75;31.39;99549.79;104761;1289;60044;-80
2023/11/29 07:58:05;;;;;;;9.90;3.30;;;;;;;22.72;31.51;99553.12;104108;1295;60595;-81
2023/11/29 08:00:30;;;;;;;14.40;3.70;;;;;;;22.67;31.66;99562.63;104774;1291;60485;-81
2023/11/29 08:02:56;;;;;;;8.30;2.80;;;;;;;22.58;31.54;99563.30;104005;1291;60610;-80
2023/11/29 08:05:27;;;;;;;8.70;3.10;;;;;;;22.52;31.45;99579.84;104259;1289;60687;-80
2023/11/29 08:07:56;;;;;;;8.40;3.10;;;;;;;22.48;31.42;99580.56;103923;1291;71556;-79
2023/11/29 08:10:22;;;;;;;12.10;3.20;;;;;;;22.48;31.29;99578.61;103720;1291;60685;-79
2023/11/29 08:12:48;;;;;;;17.10;3.40;;;;;;;22.50;31.26;99588.52;103908;1293;60553;-80
2023/11/29 08:15:13;;;;;;;11.20;2.90;;;;;;;22.54;31.36;99614.99;103608;1296;60430;-80
2023/11/29 08:17:39;;;;;;;11.90;3.00;;;;;;;22.57;31.45;99620.02;103671;1291;61646;-80
2023/11/29 08:20:06;;;;;;;10.40;2.90;;;;;;;22.62;31.58;99618.73;103711;1291;60481;-80
2023/11/29 08:22:33;;;;;;;14.50;3.10;;;;;;;22.66;31.58;99614.20;104109;1290;60555;-82
2023/11/29 08:24:59;;;;;;;11.80;2.90;;;;;;;22.69;31.72;99619.05;104602;1291;60583;-79
2023/11/29 08:27:25;;;;;;;11.40;3.20;;;;;;;22.72;31.92;99623.30;103657;1291;60547;-79
2023/11/29 08:29:54;;;;;;;11.50;3.10;;;;;;;22.76;32.07;99619.88;103654;1289;60470;-79
2023/11/29 08:32:20;;;;;;;8.10;2.90;;;;;;;22.79;32.05;99615.14;103787;1292;60524;-80
2023/11/29 08:34:45;;;;;;;17.50;3.20;;;;;;;22.81;32.26;99618.45;103727;1289;60559;-79
2023/11/29 08:37:11;;;;;;;11.60;3.00;;;;;;;22.83;32.49;99621.11;103774;1291;60603;-82
2023/11/29 08:39:37;;;;;;;12.10;2.90;;;;;;;22.86;32.68;99621.98;104652;1290;60372;-80
2023/11/29 08:42:03;;;;;;;13.40;2.70;;;;;;;22.88;32.65;99616.21;103714;1291;61432;-79
2023/11/29 08:44:31;;;;;;;10.50;3.00;;;;;;;22.90;32.68;99617.77;103575;1295;60986;-79
2023/11/29 08:46:57;;;;;;;11.20;2.90;;;;;;;22.92;32.69;99611.50;103494;1291;60559;-80
2023/11/29 08:49:22;;;;;;;7.80;2.70;;;;;;;22.94;32.78;99605.86;104467;1294;60547;-79
2023/11/29 08:51:48;;;;;;;9.90;2.80;;;;;;;22.97;32.92;99597.21;103787;1289;60733;-80
2023/11/29 08:54:13;;;;;;;18.70;3.20;;;;;;;22.98;32.94;99599.05;104015;1294;60597;-80
2023/11/29 08:56:40;;;;;;;13.40;3.00;;;;;;;22.94;33.11;99598.40;104214;1291;59476;-80
2023/11/29 08:59:11;;;;;;;8.30;2.80;;;;;;;22.89;33.06;99595.84;104144;1290;72500;-80
2023/11/29 09:01:37;;;;;;;13.00;3.20;;;;;;;22.83;32.95;99597.16;104401;1291;60654;-80
2023/11/29 09:04:02;;;;;;;8.00;2.80;;;;;;;22.77;32.88;99602.94;104511;1290;60504;-81
2023/11/29 09:06:30;;;;;;;13.70;3.10;;;;;;;22.71;32.72;99609.70;104384;1291;60441;-80
2023/11/29 09:08:55;;;;;;;9.30;3.10;;;;;;;22.68;32.65;99608.81;104247;1295;60526;-80
2023/11/29 09:11:21;;;;;;;9.00;2.60;;;;;;;22.65;32.42;99615.20;103998;1291;61839;-81
2023/11/29 09:13:48;;;;;;;12.00;3.00;;;;;;;22.63;32.37;99627.23;104064;1294;60583;-81
2023/11/29 09:16:15;;;;;;;8.90;2.60;;;;;;;22.63;32.24;99643.59;104227;1290;60620;-81
2023/11/29 09:18:44;;;;;;;8.00;2.90;;;;;;;22.62;32.12;99645.79;104621;1291;60539;-81
2023/11/29 09:21:10;;;;;;;6.70;2.90;;;;;;;22.60;32.15;99650.98;104215;1293;73810;-80
2023/11/29 09:23:37;;;;;;;7.70;2.70;;;;;;;22.59;31.93;99663.48;104120;1296;60600;-80
2023/11/29 09:26:02;;;;;;;8.80;2.80;;;;;;;22.58;31.90;99664.60;103940;1291;60595;-80
2023/11/29 09:28:28;;;;;;;5.60;2.60;;;;;;;22.56;31.78;99666.56;104087;1290;60471;-83
2023/11/29 09:30:54;;;;;;;7.50;2.60;;;;;;;22.55;31.74;99671.71;104942;1291;60575;-81
2023/11/29 09:33:23;;;;;;;5.10;2.70;;;;;;;22.52;31.64;99679.88;104774;1289;60455;-81
2023/11/29 09:35:48;;;;;;;5.40;2.40;;;;;;;22.50;31.73;99680.66;104636;1291;60485;-81
2023/11/29 09:38:16;;;;;;;8.50;2.50;;;;;;;22.49;31.55;99677.14;104640;1290;59374;-81
2023/11/29 09:40:42;;;;;;;7.30;2.70;;;;;;;22.49;31.53;99678.05;104782;1290;60543;-81
2023/11/29 09:43:08;;;;;;;6.20;2.70;;;;;;;22.49;31.43;99673.89;104813;1291;60488;-81
2023/11/29 09:45:33;;;;;;;6.60;2.30;;;;;;;22.49;31.58;99676.48;105004;1290;59439;-80
2023/11/29 09:47:59;;;;;;;6.20;2.60;;;;;;;22.48;31.46;99676.92;105167;1291;60506;-80
2023/11/29 09:50:26;;;;;;;14.70;2.70;;;;;;;22.48;31.39;99679.92;105360;1291;60903;-80
2023/11/29 09:52:54;;;;;;;9.80;3.20;;;;;;;22.48;31.62;99679.77;105146;1289;60583;-81
2023/11/29 09:55:20;;;;;;;12.10;3.20;;;;;;;22.46;31.88;99672.76;105420;1284;60545;-80
2023/11/29 09:57:45;;;;;;;20.90;3.20;;;;;;;22.43;32.15;99675.16;105495;1286;60600;-80
2023/11/29 10:00:14;;;;;;;17.80;3.20;;;;;;;22.44;32.84;99674.59;105478;1287;60449;-81
2023/11/29 10:02:40;;;;;;;14.50;3.50;;;;;;;22.45;33.18;99678.58;105625;1285;60299;-80
2023/11/29 10:05:07;;;;;;;8.50;3.10;;;;;;;22.46;33.10;99680.48;105523;1285;58923;-81
2023/11/29 10:07:32;;;;;;;11.80;3.40;;;;;;;22.42;32.88;99681.20;105402;1286;59997;-81
2023/11/29 10:10:02;;;;;;;13.30;3.00;;;;;;;22.41;32.84;99681.08;104899;1290;60441;-80
2023/11/29 10:12:28;;;;;;;11.10;3.40;;;;;;;22.40;32.82;99678.30;104584;1287;60426;-80
2023/11/29 10:14:54;;;;;;;8.20;2.60;;;;;;;22.37;32.76;99674.55;104818;1288;60516;-80
2023/11/29 10:17:20;;;;;;;11.90;3.00;;;;;;;22.37;32.35;99676.33;104761;1286;60426;-81
2023/11/29 10:19:46;;;;;;;6.40;2.40;;;;;;;22.38;32.33;99677.96;105004;1292;59746;-80
2023/11/29 10:22:15;;;;;;;6.70;2.70;;;;;;;22.40;32.26;99686.00;105483;1286;60483;-81
2023/11/29 10:24:41;;;;;;;;;;;;;;;22.42;32.26;99686.56;105367;1287;60507;-81
2023/11/29 10:27:18;;;;;;;9.80;3.10;;;;;;;22.40;32.34;99691.60;105364;1286;58722;-81
2023/11/29 10:29:45;;;;;;;9.00;2.70;;;;;;;22.42;32.65;99694.66;105177;1287;73729;-80
2023/11/29 10:32:11;;;;;;;10.00;2.80;;;;;;;22.40;32.68;99695.20;105588;1285;59931;-81
2023/11/29 10:34:37;;;;;;;12.60;3.20;;;;;;;22.37;32.68;99695.51;105302;1287;60533;-81
2023/11/29 10:37:03;;;;;;;6.90;3.00;;;;;;;22.34;32.58;99694.89;105197;1286;60591;-80
2023/11/29 10:39:30;;;;;;;6.90;2.50;;;;;;;22.28;32.35;99696.43;105362;1284;59327;-81
2023/11/29 10:41:57;;;;;;;8.60;2.70;;;;;;;22.23;32.29;99696.36;105288;1287;60484;-81
2023/11/29 10:44:37;;;;;;;6.10;2.60;;;;;;;22.20;32.23;99697.55;104465;1287;60934;-81
2023/11/29 10:47:19;;;;;;;9.10;2.80;;;;;;;22.19;32.21;99700.38;104681;1286;71272;-80
2023/11/29 10:49:50;;;;;;;10.20;3.20;;;;;;;22.17;31.98;99706.84;105332;1286;74862;-81
2023/11/29 10:52:17;;;;;;;10.30;2.60;;;;;;;22.16;32.10;99716.98;105602;1287;60298;-81
2023/11/29 10:54:45;;;;;;;11.20;2.80;;;;;;;22.15;32.31;99722.56;105726;1286;60484;-82
2023/11/29 10:57:12;;;;;;;8.40;3.00;;;;;;;22.15;32.41;99727.05;105684;1287;72494;-83
2023/11/29 10:59:38;;;;;;;8.40;2.80;;;;;;;22.14;32.56;99728.57;105596;1288;73568;-81
2023/11/29 11:02:04;;;;;;;8.40;2.70;;;;;;;22.09;32.48;99725.96;105489;1287;59351;-80
2023/11/29 11:04:35;;;;;;;8.80;2.80;;;;;;;22.02;32.39;99720.77;105337;1284;59234;-80
2023/11/29 11:07:04;;;;;;;11.90;3.00;;;;;;;21.97;32.53;99720.80;105931;1287;72725;-80
2023/11/29 11:09:36;;;;;;;8.30;2.80;;;;;;;21.95;32.69;99722.64;105893;1287;74587;-81
2023/11/29 11:12:04;;;;;;;9.50;3.00;;;;;;;21.93;32.80;99726.94;105480;1286;60420;-80
2023/11/29 11:14:50;;;;;;;9.70;2.50;;;;;;;21.88;32.89;99732.73;105302;1285;59095;-80
2023/11/29 11:17:20;;;;;;;9.60;2.70;;;;;;;21.86;32.80;99741.33;105210;1286;73710;-80
2023/11/29 11:19:47;;;;;;;6.70;2.70;;;;;;;21.87;32.98;99748.54;105284;1287;73579;-81
2023/11/29 11:22:26;;;;;;;7.00;2.60;;;;;;;21.85;33.14;99746.25;105241;1284;60593;-81